Time;durP1;ratioP1;P1;durP2;ratioP2;P2;SDS_P1;SDS_P2;PMS_P1;PMS_P2;Temp;Humidity;BMP_temperature;BMP_pressure;BME280_temperature;BME280_humidity;BME280_pressure;Samples;Min_cycle;Max_cycle;Signal;HPM_P1;HPM_P2
2021/03/05 00:00:16;;;;;;;16.35;10.57;;;4.70;99.90;;;;;;5074814;28;20223;-49
2021/03/05 00:02:45;;;;;;;14.95;10.13;;;5.00;99.90;;;;;;5074181;28;20215;-49
2021/03/05 00:05:13;;;;;;;13.82;9.45;;;4.50;99.90;;;;;;5074499;28;20703;-49
2021/03/05 00:07:39;;;;;;;17.08;9.45;;;4.80;99.90;;;;;;5074390;28;20187;-49
2021/03/05 00:10:07;;;;;;;13.68;8.30;;;5.30;99.90;;;;;;5074333;28;20565;-49
2021/03/05 00:12:33;;;;;;;13.45;8.82;;;4.70;99.90;;;;;;5073980;28;20238;-49
2021/03/05 00:15:00;;;;;;;18.10;9.68;;;4.60;99.90;;;;;;5074054;28;20214;-50
2021/03/05 00:17:26;;;;;;;18.67;10.23;;;4.80;99.90;;;;;;5074160;28;20195;-49
2021/03/05 00:19:53;;;;;;;18.52;9.82;;;4.00;99.90;;;;;;5074525;28;20191;-48
2021/03/05 00:22:19;;;;;;;14.20;9.20;;;4.50;99.90;;;;;;5073587;28;20294;-49
2021/03/05 00:24:46;;;;;;;14.98;9.43;;;4.70;99.90;;;;;;5074156;28;20270;-49
2021/03/05 00:27:12;;;;;;;21.02;9.98;;;4.60;99.90;;;;;;5073829;28;20278;-49
2021/03/05 00:29:38;;;;;;;14.25;10.10;;;4.30;99.90;;;;;;5073754;28;20278;-49
2021/03/05 00:32:05;;;;;;;18.70;10.48;;;4.50;99.90;;;;;;5073768;28;20215;-50
2021/03/05 00:34:31;;;;;;;16.98;10.45;;;4.50;99.90;;;;;;5073712;28;20597;-49
2021/03/05 00:36:58;;;;;;;20.75;10.85;;;4.60;99.90;;;;;;5073641;28;20253;-49
2021/03/05 00:39:26;;;;;;;18.35;10.07;;;4.70;99.90;;;;;;5073836;28;20188;-49
2021/03/05 00:41:52;;;;;;;19.88;10.23;;;3.80;99.90;;;;;;5055975;28;20321;-49
2021/03/05 00:44:20;;;;;;;23.23;11.07;;;4.30;99.90;;;;;;5073425;28;20241;-49
2021/03/05 00:46:47;;;;;;;20.55;11.20;;;4.40;99.90;;;;;;5073432;28;20198;-49
2021/03/05 00:49:13;;;;;;;20.02;11.27;;;4.60;99.90;;;;;;5073259;28;20244;-49
2021/03/05 00:51:39;;;;;;;23.05;12.30;;;4.10;99.90;;;;;;5073231;28;20305;-49
2021/03/05 00:54:07;;;;;;;21.60;11.57;;;4.30;99.90;;;;;;5055058;28;20636;-49
2021/03/05 00:56:34;;;;;;;26.85;11.65;;;4.20;99.90;;;;;;5055317;28;20767;-49
2021/03/05 00:59:00;;;;;;;21.90;10.63;;;4.20;99.90;;;;;;5073345;28;20191;-49
2021/03/05 01:01:30;;;;;;;25.90;11.10;;;4.20;99.90;;;;;;5055410;28;20223;-49
2021/03/05 01:03:57;;;;;;;24.73;10.93;;;4.30;99.90;;;;;;5072789;28;20559;-49
2021/03/05 01:06:32;;;;;;;19.50;10.55;;;4.30;99.90;;;;;;5055579;28;20223;-49
2021/03/05 01:09:04;;;;;;;24.08;11.45;;;4.20;99.90;;;;;;5072304;28;20199;-49
2021/03/05 01:11:31;;;;;;;23.63;12.38;;;4.20;99.90;;;;;;5073548;28;20603;-48
2021/03/05 01:13:57;;;;;;;29.83;12.20;;;4.30;99.90;;;;;;5073471;28;20286;-48
2021/03/05 01:16:23;;;;;;;26.55;12.05;;;4.30;99.90;;;;;;5073571;28;20614;-49
2021/03/05 01:18:49;;;;;;;21.17;11.25;;;4.10;99.90;;;;;;5073816;28;20227;-48
2021/03/05 01:21:16;;;;;;;23.65;10.93;;;4.50;99.90;;;;;;5073658;28;20713;-48
2021/03/05 01:23:42;;;;;;;21.05;10.77;;;4.60;99.90;;;;;;5074125;28;20270;-49
2021/03/05 01:26:10;;;;;;;29.05;11.82;;;4.50;99.90;;;;;;5073627;28;20187;-49
2021/03/05 01:28:40;;;;;;;27.00;11.40;;;3.90;99.90;;;;;;5054794;28;20577;-50
2021/03/05 01:31:06;;;;;;;25.02;12.00;;;4.40;99.90;;;;;;5072600;28;20269;-49
2021/03/05 01:33:32;;;;;;;30.42;12.63;;;4.20;99.90;;;;;;5072611;28;20199;-49
2021/03/05 01:35:59;;;;;;;24.35;13.65;;;4.00;99.90;;;;;;5072468;28;20543;-49
2021/03/05 01:38:25;;;;;;;29.65;12.23;;;3.70;99.90;;;;;;5072721;28;20227;-49
2021/03/05 01:40:51;;;;;;;23.83;11.25;;;4.00;99.90;;;;;;5072465;28;20196;-49
2021/03/05 01:43:19;;;;;;;28.08;12.32;;;3.80;99.90;;;;;;5072010;28;20235;-49
2021/03/05 01:45:47;;;;;;;33.45;12.23;;;3.70;99.90;;;;;;5072299;28;20652;-49
2021/03/05 01:48:16;;;;;;;34.53;14.05;;;3.70;99.90;;;;;;5072385;28;20191;-49
2021/03/05 01:50:50;;;;;;;34.50;11.70;;;3.70;99.90;;;;;;5054275;28;20686;-49
2021/03/05 01:53:18;;;;;;;28.13;12.45;;;3.60;99.90;;;;;;5072082;28;20241;-48
2021/03/05 01:55:44;;;;;;;33.30;14.10;;;3.50;99.90;;;;;;5072192;28;20692;-49
2021/03/05 01:58:10;;;;;;;28.73;11.63;;;3.60;99.90;;;;;;5072211;28;20758;-49
2021/03/05 02:00:41;;;;;;;31.40;12.82;;;3.50;99.90;;;;;;5072489;28;20641;-48
2021/03/05 02:03:08;;;;;;;30.35;14.32;;;3.50;99.90;;;;;;5072150;28;20242;-49
2021/03/05 02:05:36;;;;;;;31.80;14.48;;;3.40;99.90;;;;;;5072392;28;20623;-48
2021/03/05 02:08:02;;;;;;;39.60;15.75;;;3.50;99.90;;;;;;5072302;28;20219;-49
2021/03/05 02:10:28;;;;;;;35.15;14.02;;;3.30;99.90;;;;;;5072277;28;20219;-49
2021/03/05 02:12:54;;;;;;;33.08;14.32;;;3.30;99.90;;;;;;5071729;28;20214;-49
2021/03/05 02:15:21;;;;;;;46.28;15.32;;;3.20;99.90;;;;;;5072117;28;20723;-48
2021/03/05 02:17:53;;;;;;;37.63;15.63;;;3.30;99.90;;;;;;5071947;28;20191;-49
2021/03/05 02:20:27;;;;;;;36.90;16.23;;;3.10;99.90;;;;;;5071905;28;20278;-48
2021/03/05 02:23:13;;;;;;;37.80;14.27;;;3.10;99.90;;;;;;5053543;28;20302;-49
2021/03/05 02:26:16;;;;;;;36.65;14.73;;;3.10;99.90;;;;;;5071909;28;20214;-48
2021/03/05 02:29:09;;;;;;;42.90;16.85;;;3.10;99.90;;;;;;4990227;28;20197;-49
2021/03/05 02:31:41;;;;;;;34.90;15.15;;;3.00;99.90;;;;;;5071442;28;20243;-48
2021/03/05 02:34:12;;;;;;;43.40;15.93;;;3.10;99.90;;;;;;5071438;28;20229;-48
2021/03/05 02:36:42;;;;;;;31.25;12.98;;;2.70;99.90;;;;;;5071685;28;20227;-48
2021/03/05 02:39:13;;;;;;;40.83;14.90;;;3.00;99.90;;;;;;5071747;28;20278;-48
2021/03/05 02:41:42;;;;;;;40.25;14.75;;;2.90;99.90;;;;;;5072045;28;20300;-49
2021/03/05 02:44:12;;;;;;;35.33;14.02;;;3.00;99.90;;;;;;5071907;28;20626;-48
2021/03/05 02:46:41;;;;;;;33.03;12.90;;;3.00;99.90;;;;;;5072869;28;20675;-48
2021/03/05 02:49:09;;;;;;;33.15;13.82;;;2.60;99.90;;;;;;5072041;28;20221;-49
2021/03/05 02:51:37;;;;;;;43.38;13.88;;;2.80;99.90;;;;;;5071995;28;20221;-49
2021/03/05 02:54:07;;;;;;;36.13;14.82;;;2.50;99.90;;;;;;5071558;28;20277;-48
2021/03/05 02:56:36;;;;;;;28.58;12.35;;;2.50;99.90;;;;;;5071907;28;20289;-49
2021/03/05 02:59:04;;;;;;;45.00;14.10;;;2.30;99.90;;;;;;5071940;28;20191;-49
2021/03/05 03:01:32;;;;;;;30.80;12.15;;;2.50;99.90;;;;;;5071645;28;20310;-49
2021/03/05 03:04:03;;;;;;;39.90;13.30;;;2.50;99.90;;;;;;5071290;28;20278;-49
2021/03/05 03:06:31;;;;;;;33.33;12.50;;;2.60;99.90;;;;;;5071809;28;20196;-49
2021/03/05 03:08:59;;;;;;;36.58;13.90;;;2.40;99.90;;;;;;5071611;28;20222;-49
2021/03/05 03:11:26;;;;;;;31.40;12.65;;;2.70;99.90;;;;;;5072401;28;20299;-48
2021/03/05 03:13:52;;;;;;;33.92;13.18;;;2.50;99.90;;;;;;5071483;28;20278;-49
2021/03/05 03:16:20;;;;;;;30.30;11.63;;;2.40;99.90;;;;;;5071469;28;20223;-49
2021/03/05 03:18:47;;;;;;;30.35;12.95;;;2.50;99.90;;;;;;5071217;28;20200;-49
2021/03/05 03:21:15;;;;;;;28.95;11.05;;;2.50;99.90;;;;;;5071152;28;20215;-49
2021/03/05 03:23:42;;;;;;;29.48;11.40;;;2.40;99.90;;;;;;5071127;28;20559;-49
2021/03/05 03:26:09;;;;;;;25.15;11.52;;;2.00;99.90;;;;;;5072055;28;20502;-48
2021/03/05 03:28:36;;;;;;;30.10;11.57;;;2.30;99.90;;;;;;5072052;28;20226;-48
2021/03/05 03:31:05;;;;;;;29.05;11.77;;;2.40;99.90;;;;;;5071649;28;20195;-49
2021/03/05 03:33:31;;;;;;;30.63;10.98;;;2.20;99.90;;;;;;5074533;28;20676;-50
2021/03/05 03:36:00;;;;;;;28.35;12.63;;;2.00;99.90;;;;;;5075055;28;20250;-48
2021/03/05 03:38:29;;;;;;;30.90;11.63;;;2.00;99.90;;;;;;5076034;28;20199;-48
2021/03/05 03:40:57;;;;;;;23.27;11.45;;;1.90;99.90;;;;;;5075106;28;20671;-48
2021/03/05 03:43:23;;;;;;;22.80;9.65;;;2.10;99.90;;;;;;5074234;28;20199;-49
2021/03/05 03:45:50;;;;;;;21.83;10.63;;;2.10;99.90;;;;;;5074340;28;20210;-50
2021/03/05 03:48:17;;;;;;;30.92;12.57;;;1.90;99.90;;;;;;5075094;28;20721;-48
2021/03/05 03:50:47;;;;;;;28.00;12.45;;;2.10;99.90;;;;;;5074970;28;20687;-48
2021/03/05 03:53:16;;;;;;;30.52;11.52;;;2.00;99.90;;;;;;5074700;28;20203;-49
2021/03/05 03:55:44;;;;;;;29.42;12.30;;;2.10;99.90;;;;;;5074613;28;20273;-49
2021/03/05 03:58:11;;;;;;;28.35;12.05;;;2.10;99.90;;;;;;5074621;28;20198;-48
2021/03/05 04:00:38;;;;;;;23.50;11.40;;;2.00;99.90;;;;;;5074926;28;20195;-49
2021/03/05 04:03:06;;;;;;;21.55;10.40;;;2.00;99.90;;;;;;5074159;28;20703;-49
2021/03/05 04:05:37;;;;;;;19.60;9.93;;;2.00;99.90;;;;;;5074686;28;20202;-49
2021/03/05 04:08:05;;;;;;;22.20;9.95;;;1.80;99.90;;;;;;5074499;28;20191;-48
2021/03/05 04:10:31;;;;;;;28.00;11.35;;;1.60;99.90;;;;;;5074699;28;20604;-49
2021/03/05 04:13:00;;;;;;;21.70;9.77;;;1.70;99.90;;;;;;5074010;28;20719;-49
2021/03/05 04:15:26;;;;;;;20.17;9.95;;;1.60;99.90;;;;;;5056509;28;20238;-48
2021/03/05 04:17:53;;;;;;;25.45;10.00;;;1.70;99.90;;;;;;5074244;28;20292;-49
2021/03/05 04:20:22;;;;;;;24.23;10.27;;;1.70;99.90;;;;;;5075347;28;20196;-48
2021/03/05 04:22:49;;;;;;;15.52;8.05;;;2.00;99.90;;;;;;5074060;28;20254;-51
2021/03/05 04:25:17;;;;;;;23.55;8.82;;;1.60;99.90;;;;;;5056650;28;20199;-49
2021/03/05 04:27:43;;;;;;;26.35;9.93;;;1.70;99.90;;;;;;5057059;28;20199;-48
2021/03/05 04:30:12;;;;;;;26.52;9.25;;;1.90;99.90;;;;;;5075499;28;20588;-49
2021/03/05 04:32:40;;;;;;;20.13;9.07;;;1.90;99.90;;;;;;5073989;28;20218;-48
2021/03/05 04:35:08;;;;;;;18.73;11.35;;;1.10;99.90;;;;;;5074427;28;20238;-48
2021/03/05 04:37:34;;;;;;;14.20;8.30;;;1.50;99.90;;;;;;5074626;28;20904;-48
2021/03/05 04:40:01;;;;;;;19.38;9.00;;;1.80;99.90;;;;;;5074450;28;20191;-48
2021/03/05 04:42:27;;;;;;;21.27;8.43;;;1.40;99.90;;;;;;5073759;28;20246;-48
2021/03/05 04:44:53;;;;;;;16.80;8.38;;;1.30;99.90;;;;;;5073552;28;20680;-48
2021/03/05 04:47:20;;;;;;;19.02;8.50;;;1.50;99.90;;;;;;5073508;28;20233;-48
2021/03/05 04:49:46;;;;;;;17.83;8.95;;;1.40;99.90;;;;;;5073861;28;20699;-48
2021/03/05 04:52:13;;;;;;;15.55;7.15;;;1.40;99.90;;;;;;5073746;28;20624;-49
2021/03/05 04:54:39;;;;;;;19.50;7.35;;;1.40;99.90;;;;;;5073802;28;20203;-49
2021/03/05 04:57:05;;;;;;;14.73;7.20;;;1.40;99.90;;;;;;5073811;28;20684;-48
2021/03/05 04:59:31;;;;;;;14.35;7.20;;;1.40;99.90;;;;;;5073392;28;20202;-49
2021/03/05 05:01:58;;;;;;;16.15;8.80;;;1.30;99.90;;;;;;5054679;28;20300;-48
2021/03/05 05:04:25;;;;;;;15.60;8.57;;;1.60;99.90;;;;;;5073069;28;20187;-48
2021/03/05 05:06:51;;;;;;;14.50;8.45;;;0.80;99.90;;;;;;5073404;28;20191;-48
2021/03/05 05:09:18;;;;;;;17.73;9.80;;;1.40;99.90;;;;;;5073173;28;20188;-49
2021/03/05 05:11:44;;;;;;;13.70;8.18;;;1.40;99.90;;;;;;5072901;28;20211;-49
2021/03/05 05:14:10;;;;;;;16.65;8.63;;;0.90;99.90;;;;;;5072911;28;20668;-48
2021/03/05 05:16:37;;;;;;;12.98;8.88;;;1.30;99.90;;;;;;5072714;28;20307;-48
2021/03/05 05:19:03;;;;;;;11.38;6.72;;;1.60;99.90;;;;;;5072996;28;20230;-49
2021/03/05 05:21:30;;;;;;;18.33;7.00;;;1.30;99.90;;;;;;5073002;28;20219;-50
2021/03/05 05:23:56;;;;;;;11.98;7.10;;;1.30;99.90;;;;;;5072633;28;20191;-49
2021/03/05 05:26:23;;;;;;;11.52;7.05;;;1.40;99.90;;;;;;5073015;28;20188;-49
2021/03/05 05:28:49;;;;;;;11.45;7.18;;;1.60;99.90;;;;;;5054921;28;20199;-49
2021/03/05 05:31:15;;;;;;;13.65;7.70;;;1.30;99.90;;;;;;5072521;28;20238;-49
2021/03/05 05:33:41;;;;;;;9.57;6.70;;;1.60;99.90;;;;;;5072480;28;20196;-49
2021/03/05 05:36:08;;;;;;;21.20;8.07;;;0.90;99.90;;;;;;5072377;28;20646;-49
2021/03/05 05:38:35;;;;;;;10.70;7.43;;;1.70;99.90;;;;;;5072573;28;20223;-49
2021/03/05 05:41:01;;;;;;;11.52;7.00;;;1.70;99.90;;;;;;5072046;28;20227;-49
2021/03/05 05:43:30;;;;;;;11.88;6.78;;;1.40;99.90;;;;;;5071897;28;20272;-50
2021/03/05 05:46:02;;;;;;;10.40;6.65;;;1.50;99.90;;;;;;5072244;28;20244;-49
2021/03/05 05:48:28;;;;;;;15.02;8.18;;;1.40;99.90;;;;;;5072237;28;20196;-49
2021/03/05 05:50:56;;;;;;;13.40;7.43;;;1.40;99.90;;;;;;5072450;28;20195;-48
2021/03/05 05:53:23;;;;;;;10.90;6.80;;;1.40;99.90;;;;;;5071795;28;20573;-49
2021/03/05 05:55:51;;;;;;;9.30;7.32;;;1.30;99.90;;;;;;5071420;28;20203;-49
2021/03/05 05:58:18;;;;;;;11.00;7.30;;;1.30;99.90;;;;;;5072124;28;20308;-49
2021/03/05 06:00:44;;;;;;;12.00;6.20;;;1.50;99.90;;;;;;5072037;28;20206;-50
2021/03/05 06:03:11;;;;;;;10.27;6.65;;;1.30;99.90;;;;;;5071621;28;20191;-48
2021/03/05 06:05:37;;;;;;;23.70;8.52;;;1.30;99.90;;;;;;5053796;28;20227;-50
2021/03/05 06:08:05;;;;;;;9.00;6.70;;;1.40;99.90;;;;;;5071856;28;20612;-49
2021/03/05 06:10:32;;;;;;;14.90;8.00;;;1.30;99.90;;;;;;5071799;28;20202;-48
2021/03/05 06:12:59;;;;;;;15.73;9.35;;;0.90;99.90;;;;;;5071531;28;20222;-49
2021/03/05 06:15:28;;;;;;;14.88;7.15;;;1.40;99.90;;;;;;5071875;28;20304;-49
2021/03/05 06:17:54;;;;;;;10.60;6.40;;;1.40;99.90;;;;;;5071905;28;20663;-49
2021/03/05 06:20:21;;;;;;;10.85;6.80;;;1.40;99.90;;;;;;5071886;28;20222;-49
2021/03/05 06:23:05;;;;;;;12.52;7.88;;;1.50;99.90;;;;;;5071456;28;20651;-49
2021/03/05 06:25:35;;;;;;;12.48;8.20;;;1.60;99.90;;;;;;5071665;28;20197;-48
2021/03/05 06:28:12;;;;;;;8.30;7.07;;;1.50;99.90;;;;;;5072099;28;20241;-50
2021/03/05 06:30:39;;;;;;;15.10;8.65;;;1.50;99.90;;;;;;5071325;28;20199;-49
2021/03/05 06:33:21;;;;;;;12.15;7.93;;;1.40;99.90;;;;;;5071088;28;20215;-49
2021/03/05 06:35:48;;;;;;;9.65;7.40;;;1.60;99.90;;;;;;5071318;28;20226;-50
2021/03/05 06:38:38;;;;;;;12.48;7.88;;;1.60;99.90;;;;;;5071906;28;20668;-49
2021/03/05 06:41:19;;;;;;;12.10;6.95;;;1.50;99.90;;;;;;5072069;28;20223;-48
2021/03/05 06:43:48;;;;;;;10.82;7.47;;;1.70;99.90;;;;;;5071355;28;20668;-48
2021/03/05 06:46:36;;;;;;;7.65;6.50;;;1.50;99.90;;;;;;5071114;28;20686;-49
2021/03/05 06:49:04;;;;;;;8.18;6.45;;;1.70;99.90;;;;;;5071463;28;20647;-50
2021/03/05 06:51:31;;;;;;;10.15;5.85;;;1.70;99.90;;;;;;5072038;28;20253;-49
2021/03/05 06:54:05;;;;;;;12.18;6.90;;;1.50;99.90;;;;;;5071285;28;20737;-49
2021/03/05 06:56:34;;;;;;;9.23;6.30;;;1.60;99.90;;;;;;5071543;28;20235;-49
2021/03/05 06:59:04;;;;;;;10.27;6.05;;;1.80;99.90;;;;;;5071575;28;20256;-49
2021/03/05 07:01:30;;;;;;;13.82;8.38;;;2.00;99.90;;;;;;5071577;28;20261;-49
2021/03/05 07:04:07;;;;;;;12.27;7.55;;;1.20;99.90;;;;;;5071491;28;20197;-50
2021/03/05 07:06:34;;;;;;;9.70;6.75;;;1.90;99.90;;;;;;5073863;28;20272;-50
2021/03/05 07:09:00;;;;;;;12.05;8.73;;;1.90;99.90;;;;;;5075941;28;20282;-50
2021/03/05 07:11:35;;;;;;;8.20;6.65;;;2.00;99.90;;;;;;5075711;28;20215;-48
2021/03/05 07:14:03;;;;;;;8.73;6.40;;;1.90;99.90;;;;;;5075659;28;20199;-48
2021/03/05 07:16:40;;;;;;;11.38;7.22;;;2.00;99.90;;;;;;5076017;28;20219;-49
2021/03/05 07:19:07;;;;;;;9.27;6.03;;;2.10;99.90;;;;;;5057931;28;20210;-48
2021/03/05 07:21:39;;;;;;;11.60;6.28;;;2.20;99.90;;;;;;5075689;28;20306;-48
2021/03/05 07:24:07;;;;;;;13.07;7.53;;;1.90;99.90;;;;;;5075836;28;20578;-48
2021/03/05 07:26:42;;;;;;;8.23;6.10;;;2.00;99.90;;;;;;5076179;28;20203;-49
2021/03/05 07:29:14;;;;;;;9.40;6.30;;;2.30;99.90;;;;;;5075932;28;20563;-49
2021/03/05 07:31:42;;;;;;;8.38;6.10;;;2.10;99.90;;;;;;5057414;28;20605;-49
2021/03/05 07:34:15;;;;;;;7.80;6.32;;;2.30;99.90;;;;;;5075181;28;20214;-48
2021/03/05 07:36:48;;;;;;;12.80;6.75;;;2.40;99.90;;;;;;5074894;28;20219;-49
2021/03/05 07:39:21;;;;;;;7.60;5.80;;;2.20;99.90;;;;;;5074591;28;20555;-49
2021/03/05 07:41:51;;;;;;;10.93;7.25;;;2.30;99.90;;;;;;5074459;28;20695;-49
2021/03/05 07:44:19;;;;;;;13.32;9.93;;;2.20;99.90;;;;;;5074096;28;20202;-48
2021/03/05 07:46:45;;;;;;;10.43;7.10;;;2.50;99.90;;;;;;5074436;28;20191;-49
2021/03/05 07:49:12;;;;;;;8.75;6.43;;;2.70;99.90;;;;;;5056631;28;20206;-49
2021/03/05 07:51:40;;;;;;;7.75;6.55;;;2.70;99.90;;;;;;5074394;28;20214;-49
2021/03/05 07:54:07;;;;;;;8.82;5.95;;;2.90;99.90;;;;;;5074490;28;20286;-49
2021/03/05 07:56:44;;;;;;;9.80;7.22;;;2.60;99.90;;;;;;5074273;28;20216;-49
2021/03/05 07:59:11;;;;;;;10.13;7.47;;;2.40;99.90;;;;;;5056593;28;20214;-51
2021/03/05 08:01:59;;;;;;;14.95;6.63;;;1.80;99.90;;;;;;5056533;28;20571;-50
2021/03/05 08:05:03;;;;;;;10.63;6.57;;;2.50;99.90;;;;;;5074226;28;20183;-49
2021/03/05 08:07:31;;;;;;;15.07;7.03;;;2.80;99.90;;;;;;5074295;28;20266;-49
2021/03/05 08:09:57;;;;;;;8.70;6.00;;;2.90;99.90;;;;;;5074471;28;20195;-50
2021/03/05 08:12:35;;;;;;;6.82;5.28;;;2.60;99.90;;;;;;5074525;28;20211;-49
2021/03/05 08:15:21;;;;;;;7.78;5.72;;;2.80;99.90;;;;;;5074508;28;20191;-49
2021/03/05 08:17:49;;;;;;;10.45;5.35;;;3.00;99.90;;;;;;5073434;28;20194;-50
2021/03/05 08:20:48;;;;;;;13.80;5.93;;;3.10;99.90;;;;;;5074203;28;20195;-50
2021/03/05 08:23:16;;;;;;;7.57;5.72;;;2.90;99.90;;;;;;5074032;28;20191;-50
2021/03/05 08:25:53;;;;;;;8.50;5.28;;;3.00;99.90;;;;;;5074080;28;20198;-49
2021/03/05 08:28:46;;;;;;;10.77;5.25;;;3.10;99.90;;;;;;5074182;28;20195;-49
2021/03/05 08:31:37;;;;;;;6.65;5.30;;;3.20;99.90;;;;;;5074062;28;20253;-49
2021/03/05 08:34:31;;;;;;;6.97;3.55;;;3.10;99.90;;;;;;5073378;28;20282;-49
2021/03/05 08:36:58;;;;;;;7.10;4.75;;;3.20;99.90;;;;;;5026464;28;20247;-49
2021/03/05 08:39:29;;;;;;;13.40;6.10;;;3.40;99.90;;;;;;5073717;28;20196;-50
2021/03/05 08:42:35;;;;;;;6.72;4.18;;;3.30;99.90;;;;;;5073252;28;20281;-51
2021/03/05 08:45:23;;;;;;;9.75;4.85;;;3.20;99.90;;;;;;5066943;28;20215;-50
2021/03/05 08:47:52;;;;;;;13.07;5.75;;;3.40;99.90;;;;;;5067264;28;20443;-49
2021/03/05 08:50:21;;;;;;;7.40;5.53;;;3.90;99.90;;;;;;5073489;28;20639;-50
2021/03/05 08:52:50;;;;;;;16.10;7.03;;;3.10;99.90;;;;;;5072832;28;20653;-50
2021/03/05 08:55:19;;;;;;;7.40;5.53;;;3.50;99.90;;;;;;5072752;28;20195;-49
2021/03/05 08:57:47;;;;;;;8.50;5.80;;;3.60;99.90;;;;;;5073429;28;20221;-49
2021/03/05 09:00:16;;;;;;;9.68;7.20;;;3.80;99.90;;;;;;5073290;28;20223;-52
2021/03/05 09:02:44;;;;;;;12.15;6.28;;;4.20;99.90;;;;;;5072661;28;20223;-50
2021/03/05 09:05:13;;;;;;;8.48;6.40;;;4.10;99.90;;;;;;5072854;28;20581;-49
2021/03/05 09:07:52;;;;;;;11.38;6.75;;;4.20;99.90;;;;;;5073012;28;20191;-49
2021/03/05 09:10:20;;;;;;;22.17;13.38;;;4.00;99.90;;;;;;5073015;28;20203;-50
2021/03/05 09:12:58;;;;;;;16.92;8.00;;;3.90;99.90;;;;;;5054201;28;20711;-50
2021/03/05 09:15:28;;;;;;;12.70;7.90;;;4.10;99.90;;;;;;5073033;28;20582;-50
2021/03/05 09:17:57;;;;;;;18.30;7.80;;;4.20;99.90;;;;;;5073301;28;20589;-49
2021/03/05 09:20:33;;;;;;;10.70;7.80;;;4.10;99.90;;;;;;5072900;28;20206;-49
2021/03/05 09:23:19;;;;;;;16.42;7.70;;;4.10;99.90;;;;;;5055602;28;20294;-49
2021/03/05 09:25:51;;;;;;;15.27;10.10;;;3.80;99.90;;;;;;5071417;28;20414;-49
2021/03/05 09:28:19;;;;;;;9.30;8.32;;;3.90;99.90;;;;;;5072509;28;20659;-50
2021/03/05 09:30:50;;;;;;;12.38;8.45;;;4.20;99.90;;;;;;5072036;28;20201;-49
2021/03/05 09:33:18;;;;;;;10.95;6.85;;;4.20;99.90;;;;;;5072250;28;20191;-51
2021/03/05 09:35:44;;;;;;;7.47;6.65;;;3.50;99.90;;;;;;5071951;28;20242;-49
2021/03/05 09:38:24;;;;;;;12.00;7.55;;;3.80;99.90;;;;;;5071899;28;20663;-50
2021/03/05 09:40:52;;;;;;;9.98;7.07;;;4.10;99.90;;;;;;5071425;28;20213;-50
2021/03/05 09:43:22;;;;;;;14.23;7.28;;;4.10;99.90;;;;;;5071169;28;20284;-49
2021/03/05 09:45:53;;;;;;;13.23;7.20;;;3.70;99.90;;;;;;5071739;28;20184;-50
2021/03/05 09:48:30;;;;;;;7.90;5.15;;;4.00;99.90;;;;;;5072094;28;20183;-49
2021/03/05 09:51:09;;;;;;;7.45;5.43;;;3.90;99.90;;;;;;5108790;27;20603;-49
2021/03/05 09:53:39;;;;;;;6.75;4.25;;;4.10;99.90;;;;;;5108485;28;20198;-49
2021/03/05 09:56:10;;;;;;;6.60;4.60;;;4.20;99.90;;;;;;5108631;28;20190;-51
2021/03/05 09:58:51;;;;;;;4.80;4.15;;;4.10;99.90;;;;;;5108490;28;20750;-50
2021/03/05 10:01:21;;;;;;;5.30;4.00;;;3.90;99.90;;;;;;5107748;28;20272;-49
2021/03/05 10:03:57;;;;;;;5.85;3.80;;;4.10;99.90;;;;;;5108415;28;20231;-49
2021/03/05 10:06:30;;;;;;;6.20;5.00;;;4.10;99.90;;;;;;5107162;28;20209;-49
2021/03/05 10:09:04;;;;;;;8.45;4.70;;;3.70;99.90;;;;;;5108115;28;20288;-49
2021/03/05 10:11:40;;;;;;;10.23;6.47;;;4.00;99.90;;;;;;5108264;28;20724;-50
2021/03/05 10:14:23;;;;;;;6.03;3.78;;;3.90;99.90;;;;;;5106818;28;20670;-49
2021/03/05 10:16:50;;;;;;;6.93;3.72;;;4.00;99.90;;;;;;5108951;28;20649;-50
2021/03/05 10:19:17;;;;;;;6.30;3.45;;;4.10;99.90;;;;;;5108441;28;20503;-51
2021/03/05 10:21:46;;;;;;;8.30;4.18;;;4.00;99.90;;;;;;5109129;28;20206;-49
2021/03/05 10:24:15;;;;;;;4.57;2.40;;;4.00;99.90;;;;;;5108195;28;20206;-50
2021/03/05 10:27:10;;;;;;;4.10;2.65;;;3.40;99.90;;;;;;5108870;28;20209;-50
2021/03/05 10:29:41;;;;;;;3.40;2.15;;;4.20;99.90;;;;;;5108729;28;20686;-49
2021/03/05 10:32:21;;;;;;;2.45;1.65;;;4.20;99.90;;;;;;5108895;28;20221;-50
2021/03/05 10:34:50;;;;;;;8.18;2.20;;;4.20;99.10;;;;;;5108272;28;20186;-51
2021/03/05 10:37:18;;;;;;;3.85;2.45;;;4.30;99.20;;;;;;5108066;28;20201;-51
2021/03/05 10:39:45;;;;;;;5.13;2.45;;;4.50;99.50;;;;;;5108504;28;20182;-51
2021/03/05 10:42:15;;;;;;;4.38;2.80;;;4.30;97.70;;;;;;5106810;28;20587;-49
2021/03/05 10:44:43;;;;;;;5.35;2.67;;;4.60;98.00;;;;;;5107925;28;20277;-50
2021/03/05 10:47:11;;;;;;;4.97;2.47;;;4.20;97.50;;;;;;5108091;28;20603;-49
2021/03/05 10:49:39;;;;;;;4.38;3.70;;;4.30;98.10;;;;;;5108120;28;20247;-50
2021/03/05 10:52:06;;;;;;;6.57;3.20;;;4.40;98.10;;;;;;5108290;28;20244;-50
2021/03/05 10:54:34;;;;;;;3.75;2.30;;;4.30;97.10;;;;;;5107392;28;20190;-50
2021/03/05 10:57:02;;;;;;;3.33;2.30;;;4.40;96.10;;;;;;5108279;28;20199;-51
2021/03/05 10:59:30;;;;;;;4.25;2.45;;;4.50;96.60;;;;;;5108043;28;20704;-49
2021/03/05 11:01:57;;;;;;;4.18;2.38;;;4.60;96.50;;;;;;5095660;28;20219;-50
2021/03/05 11:04:25;;;;;;;3.67;2.35;;;4.60;96.30;;;;;;5094224;28;20259;-50
2021/03/05 11:06:52;;;;;;;2.97;2.40;;;4.70;95.90;;;;;;5094276;28;20207;-50
2021/03/05 11:09:19;;;;;;;3.60;1.80;;;4.40;94.20;;;;;;5094606;28;20289;-52
2021/03/05 11:11:47;;;;;;;4.18;2.22;;;4.70;92.70;;;;;;5094258;28;20265;-49
2021/03/05 11:14:15;;;;;;;6.07;2.78;;;4.70;92.40;;;;;;5093976;28;20195;-51
2021/03/05 11:16:42;;;;;;;6.55;2.72;;;4.80;92.90;;;;;;5094037;28;20183;-50
2021/03/05 11:19:09;;;;;;;4.93;2.45;;;4.60;93.20;;;;;;5093914;28;20195;-49
2021/03/05 11:21:36;;;;;;;3.45;2.63;;;4.80;93.50;;;;;;5094151;28;20570;-51
2021/03/05 11:24:04;;;;;;;4.82;2.78;;;5.10;94.00;;;;;;5093783;28;20187;-51
2021/03/05 11:26:31;;;;;;;3.33;2.75;;;5.10;93.20;;;;;;5094037;28;20308;-50
2021/03/05 11:28:58;;;;;;;4.65;2.95;;;5.10;93.30;;;;;;5092428;28;20267;-50
2021/03/05 11:31:25;;;;;;;5.10;2.72;;;4.60;92.80;;;;;;5093388;28;20219;-50
2021/03/05 11:33:54;;;;;;;4.60;2.50;;;5.00;93.00;;;;;;5093420;28;20697;-50
2021/03/05 11:36:21;;;;;;;4.88;3.42;;;5.10;93.40;;;;;;5093826;28;20693;-50
2021/03/05 11:38:50;;;;;;;5.82;2.53;;;5.30;93.40;;;;;;5093900;28;20216;-50
2021/03/05 11:41:17;;;;;;;8.07;3.78;;;5.30;92.70;;;;;;5093936;28;20218;-50
2021/03/05 11:43:47;;;;;;;3.90;2.58;;;4.50;92.30;;;;;;5093589;28;20528;-49
2021/03/05 11:46:15;;;;;;;5.47;1.83;;;5.10;92.40;;;;;;5094099;28;20191;-50
2021/03/05 11:48:42;;;;;;;2.47;1.70;;;5.70;90.40;;;;;;5093784;28;20195;-49
2021/03/05 11:51:09;;;;;;;5.82;1.45;;;5.20;88.80;;;;;;5094073;28;20729;-50
2021/03/05 11:53:36;;;;;;;2.05;1.40;;;5.20;84.00;;;;;;5092884;28;20206;-49
2021/03/05 11:56:03;;;;;;;2.75;1.60;;;5.20;84.10;;;;;;5093312;28;20191;-48
2021/03/05 11:58:29;;;;;;;2.58;1.50;;;5.50;85.70;;;;;;5093258;28;20206;-49
2021/03/05 12:00:56;;;;;;;3.50;2.17;;;5.30;85.70;;;;;;5092855;28;20186;-50
2021/03/05 12:03:24;;;;;;;4.50;1.80;;;5.30;83.00;;;;;;5092697;28;20252;-49
2021/03/05 12:05:51;;;;;;;2.25;1.50;;;5.40;83.70;;;;;;5093397;28;20194;-50
2021/03/05 12:08:17;;;;;;;5.72;1.92;;;5.60;83.10;;;;;;5093208;28;20522;-48
2021/03/05 12:10:44;;;;;;;2.03;1.70;;;5.50;84.30;;;;;;5093558;28;20637;-49
2021/03/05 12:13:11;;;;;;;4.28;2.03;;;5.70;83.80;;;;;;5091567;28;20723;-49
2021/03/05 12:15:38;;;;;;;2.90;1.77;;;5.80;84.00;;;;;;5092375;28;20226;-50
2021/03/05 12:18:05;;;;;;;3.17;1.40;;;5.50;79.90;;;;;;5092550;28;20281;-49
2021/03/05 12:20:34;;;;;;;1.95;1.15;;;5.90;76.60;;;;;;5092867;28;20224;-49
2021/03/05 12:23:01;;;;;;;3.67;1.30;;;5.70;77.20;;;;;;5091633;28;20211;-49
2021/03/05 12:25:28;;;;;;;2.55;1.67;;;5.50;75.00;;;;;;5092346;28;20199;-51
2021/03/05 12:27:54;;;;;;;3.00;1.42;;;5.80;76.90;;;;;;5092165;28;20195;-49
2021/03/05 12:30:22;;;;;;;5.88;2.25;;;5.70;73.70;;;;;;5092330;28;20226;-49
2021/03/05 12:32:50;;;;;;;2.85;1.35;;;5.50;71.00;;;;;;5091931;28;20219;-51
2021/03/05 12:35:17;;;;;;;1.88;1.40;;;5.50;74.20;;;;;;5091740;28;20222;-51
2021/03/05 12:37:45;;;;;;;2.08;1.52;;;5.60;75.80;;;;;;5091965;28;20198;-51
2021/03/05 12:40:13;;;;;;;2.33;1.17;;;5.70;76.80;;;;;;5090775;28;20229;-51
2021/03/05 12:42:41;;;;;;;3.83;1.42;;;5.80;77.90;;;;;;5092046;28;20216;-51
2021/03/05 12:45:09;;;;;;;1.65;1.08;;;5.80;78.10;;;;;;5091892;28;20203;-51
2021/03/05 12:47:37;;;;;;;2.28;1.20;;;5.70;73.20;;;;;;5092175;28;20248;-52
2021/03/05 12:50:05;;;;;;;3.05;1.50;;;6.30;73.40;;;;;;5091894;28;20214;-50
2021/03/05 12:52:32;;;;;;;2.42;1.50;;;5.80;72.10;;;;;;5090222;28;20295;-51
2021/03/05 12:54:59;;;;;;;3.47;1.23;;;5.80;73.30;;;;;;5091782;28;20195;-50
2021/03/05 12:57:26;;;;;;;1.63;1.25;;;5.80;74.30;;;;;;5091708;28;20437;-52
2021/03/05 12:59:53;;;;;;;3.05;1.40;;;5.50;74.70;;;;;;5091825;28;20187;-49